createdAt,value
2018-02-23T00:00:59.751Z,12.50
2018-02-23T00:01:59.714Z,12.20
2018-02-23T00:02:59.675Z,11.30
2018-02-23T00:03:59.657Z,11.20
2018-02-23T00:04:59.928Z,12.00
2018-02-23T00:05:59.580Z,11.30
2018-02-23T00:06:59.548Z,12.70
2018-02-23T00:07:59.518Z,9.80
2018-02-23T00:08:59.485Z,10.10
2018-02-23T00:09:59.455Z,10.70
2018-02-23T00:10:59.674Z,10.90
2018-02-23T00:11:59.392Z,11.30
2018-02-23T00:12:59.358Z,11.00
2018-02-23T00:13:59.329Z,11.60
2018-02-23T00:14:59.295Z,12.40
2018-02-23T00:15:59.257Z,13.10
2018-02-23T00:16:59.488Z,10.70
2018-02-23T00:17:59.198Z,11.50
2018-02-23T00:18:59.158Z,11.70
2018-02-23T00:19:59.130Z,11.50
2018-02-23T00:20:59.104Z,12.00
2018-02-23T00:21:59.066Z,10.40
2018-02-23T00:22:59.033Z,9.90
2018-02-23T00:23:58.993Z,11.70
2018-02-23T00:24:58.969Z,11.00
2018-02-23T00:25:58.936Z,11.40
2018-02-23T00:26:58.911Z,11.90
2018-02-23T00:27:58.871Z,12.00
2018-02-23T00:28:59.137Z,11.50
2018-02-23T00:29:58.806Z,11.90
2018-02-23T00:30:58.773Z,10.80
2018-02-23T00:31:58.744Z,11.70
2018-02-23T00:32:58.713Z,13.30
2018-02-23T00:33:58.675Z,12.20
2018-02-23T00:34:58.649Z,12.50
2018-02-23T00:35:58.611Z,11.80
2018-02-23T00:36:58.750Z,12.20
2018-02-23T00:37:58.539Z,12.80
2018-02-23T00:38:58.515Z,13.20
2018-02-23T00:39:58.479Z,12.00
2018-02-23T00:40:58.693Z,13.80
2018-02-23T00:41:58.424Z,11.20
2018-02-23T00:42:58.390Z,11.90
2018-02-23T00:43:58.351Z,12.20
2018-02-23T00:44:58.321Z,13.20
2018-02-23T00:45:58.292Z,12.70
2018-02-23T00:46:58.266Z,13.70
2018-02-23T00:47:58.234Z,12.00
2018-02-23T00:48:58.195Z,13.50
2018-02-23T00:49:58.155Z,13.10
2018-02-23T00:50:58.122Z,13.20
2018-02-23T00:51:58.090Z,14.20
2018-02-23T00:52:58.322Z,13.10
2018-02-23T00:53:58.027Z,13.00
2018-02-23T00:54:57.994Z,12.40
2018-02-23T00:55:57.967Z,12.70
2018-02-23T00:56:57.928Z,17.10
2018-02-23T00:57:57.906Z,12.90
2018-02-23T00:58:57.875Z,14.10
2018-02-23T00:59:57.825Z,12.90
2018-02-23T01:00:57.797Z,13.90
2018-02-23T01:01:57.773Z,14.10
2018-02-23T01:02:57.739Z,15.40
2018-02-23T01:03:57.709Z,14.30
2018-02-23T01:04:58.021Z,15.40
2018-02-23T01:05:57.633Z,13.40
2018-02-23T01:06:57.604Z,14.80
2018-02-23T01:07:57.575Z,14.70
2018-02-23T01:08:57.540Z,15.20
2018-02-23T01:09:57.505Z,14.00
2018-02-23T01:10:57.467Z,15.10
2018-02-23T01:11:57.434Z,14.60
2018-02-23T01:12:57.401Z,12.90
2018-02-23T01:13:57.388Z,13.80
2018-02-23T01:14:57.339Z,14.50
2018-02-23T01:15:57.311Z,14.00
2018-02-23T01:16:57.274Z,15.20
2018-02-23T01:17:57.249Z,14.70
2018-02-23T01:18:57.217Z,15.50
2018-02-23T01:19:57.173Z,14.80
2018-02-23T01:20:57.138Z,15.30
2018-02-23T01:21:57.109Z,15.70
2018-02-23T01:22:57.627Z,15.40
2018-02-23T01:23:57.053Z,15.40
2018-02-23T01:24:57.013Z,16.30
2018-02-23T01:25:56.984Z,17.20
2018-02-23T01:26:56.954Z,16.40
2018-02-23T01:27:56.919Z,16.60
2018-02-23T01:28:57.132Z,16.70
2018-02-23T01:29:56.848Z,17.50
2018-02-23T01:30:56.815Z,17.20
2018-02-23T01:31:56.789Z,18.10
2018-02-23T01:32:56.758Z,19.10
2018-02-23T01:33:56.712Z,18.00
2018-02-23T01:34:57.039Z,18.20
2018-02-23T01:35:56.658Z,18.60
2018-02-23T01:36:56.624Z,19.60
2018-02-23T01:37:56.593Z,19.90
2018-02-23T01:38:56.558Z,19.70
2018-02-23T01:39:56.514Z,22.10
2018-02-23T01:40:56.484Z,20.30
2018-02-23T01:41:56.462Z,22.70
2018-02-23T01:42:56.420Z,23.10
2018-02-23T01:43:56.398Z,25.10
2018-02-23T01:44:56.360Z,23.30
2018-02-23T01:45:56.317Z,27.60
2018-02-23T01:46:56.288Z,23.30
2018-02-23T01:47:56.258Z,25.80
2018-02-23T01:48:56.236Z,27.60
2018-02-23T01:49:56.191Z,31.10
2018-02-23T01:50:56.156Z,25.70
2018-02-23T01:51:56.128Z,25.90
2018-02-23T01:52:56.348Z,29.00
2018-02-23T01:53:56.074Z,28.20
2018-02-23T01:54:56.029Z,28.20
2018-02-23T01:55:55.991Z,27.00
2018-02-23T01:56:55.956Z,31.70
2018-02-23T01:57:55.933Z,32.60
2018-02-23T01:58:56.241Z,32.30
2018-02-23T01:59:55.866Z,32.50
2018-02-23T02:00:55.829Z,34.00
2018-02-23T02:01:55.787Z,33.90
2018-02-23T02:02:55.762Z,33.60
2018-02-23T02:03:55.724Z,33.00
2018-02-23T02:04:55.691Z,36.50
2018-02-23T02:05:55.650Z,34.70
2018-02-23T02:06:55.620Z,36.90
2018-02-23T02:07:55.590Z,38.20
2018-02-23T02:08:55.557Z,36.80
2018-02-23T02:09:55.529Z,39.30
2018-02-23T02:10:55.795Z,37.30
2018-02-23T02:11:55.448Z,39.00
2018-02-23T02:12:55.424Z,39.50
2018-02-23T02:13:55.392Z,37.70
2018-02-23T02:14:55.357Z,39.00
2018-02-23T02:15:55.326Z,39.20
2018-02-23T02:16:55.299Z,41.70
2018-02-23T02:17:55.250Z,43.10
2018-02-23T02:18:55.220Z,41.00
2018-02-23T02:19:55.199Z,40.40
2018-02-23T02:20:55.153Z,42.20
2018-02-23T02:21:55.117Z,42.70
2018-02-23T02:22:55.082Z,42.30
2018-02-23T02:23:55.050Z,43.90
2018-02-23T02:24:55.013Z,41.10
2018-02-23T02:25:54.985Z,46.20
2018-02-23T02:26:54.954Z,44.20
2018-02-23T02:27:54.924Z,42.30
2018-02-23T02:28:55.134Z,42.70
2018-02-23T02:29:54.853Z,48.10
2018-02-23T02:30:54.823Z,45.20
2018-02-23T02:31:54.782Z,46.20
2018-02-23T02:32:54.756Z,47.80
2018-02-23T02:33:54.710Z,47.70
2018-02-23T02:34:54.676Z,46.30
2018-02-23T02:35:54.651Z,46.40
2018-02-23T02:36:54.623Z,43.80
2018-02-23T02:37:54.573Z,47.60
2018-02-23T02:38:54.544Z,48.00
2018-02-23T02:39:54.516Z,47.60
2018-02-23T02:40:54.473Z,47.20
2018-02-23T02:41:54.440Z,48.60
2018-02-23T02:42:54.415Z,47.60
2018-02-23T02:43:54.383Z,47.70
2018-02-23T02:44:54.376Z,45.30
2018-02-23T02:45:54.306Z,45.40
2018-02-23T02:46:54.528Z,48.20
2018-02-23T02:47:54.244Z,46.40
2018-02-23T02:48:54.203Z,47.80
2018-02-23T02:49:54.175Z,47.30
2018-02-23T02:50:54.134Z,45.40
2018-02-23T02:51:54.102Z,46.60
2018-02-23T02:52:54.331Z,49.30
2018-02-23T02:53:54.041Z,49.10
2018-02-23T02:54:53.995Z,46.10
2018-02-23T02:55:53.964Z,49.10
2018-02-23T02:56:53.930Z,44.70
2018-02-23T02:57:53.901Z,45.80
2018-02-23T02:58:53.863Z,44.90
2018-02-23T02:59:53.828Z,44.90
2018-02-23T03:00:53.842Z,46.40
2018-02-23T03:01:53.772Z,46.10
2018-02-23T03:02:53.744Z,47.20
2018-02-23T03:03:53.698Z,46.50
2018-02-23T03:04:53.665Z,47.10
2018-02-23T03:05:53.626Z,47.50
2018-02-23T03:06:53.592Z,46.90
2018-02-23T03:07:53.558Z,46.90
2018-02-23T03:08:53.527Z,47.20
2018-02-23T03:09:53.485Z,48.10
2018-02-23T03:10:53.462Z,48.40
2018-02-23T03:11:53.423Z,49.10
2018-02-23T03:12:53.383Z,46.50
2018-02-23T03:13:53.358Z,45.30
2018-02-23T03:14:53.331Z,48.90
2018-02-23T03:15:53.296Z,47.30
2018-02-23T03:16:53.553Z,47.60
2018-02-23T03:17:53.216Z,44.30
2018-02-23T03:18:53.184Z,45.80
2018-02-23T03:19:53.160Z,47.50
2018-02-23T03:20:53.115Z,47.30
2018-02-23T03:21:53.084Z,49.30
2018-02-23T03:22:53.392Z,43.90
2018-02-23T03:23:53.021Z,45.50
2018-02-23T03:24:52.982Z,43.50
2018-02-23T03:25:52.947Z,45.70
2018-02-23T03:26:52.930Z,47.30
2018-02-23T03:27:52.877Z,46.40
2018-02-23T03:28:53.095Z,44.00
2018-02-23T03:29:52.803Z,45.50
2018-02-23T03:30:52.773Z,47.30
2018-02-23T03:31:52.747Z,45.30
2018-02-23T03:32:52.704Z,42.80
2018-02-23T03:33:52.681Z,44.80
2018-02-23T03:34:52.632Z,44.70
2018-02-23T03:35:52.602Z,46.10
2018-02-23T03:36:52.570Z,44.40
2018-02-23T03:37:52.544Z,42.90
2018-02-23T03:38:52.507Z,46.30
2018-02-23T03:39:52.472Z,43.60
2018-02-23T03:40:52.437Z,44.60
2018-02-23T03:41:52.412Z,45.40
2018-02-23T03:42:52.380Z,46.50
2018-02-23T03:43:52.335Z,43.60
2018-02-23T03:44:52.303Z,49.80
2018-02-23T03:45:52.272Z,43.40
2018-02-23T03:46:52.246Z,43.90
2018-02-23T03:47:52.201Z,44.20
2018-02-23T03:48:52.170Z,42.50
2018-02-23T03:49:52.136Z,48.40
2018-02-23T03:50:52.100Z,41.80
2018-02-23T03:51:52.070Z,44.20
2018-02-23T03:52:52.082Z,41.00
2018-02-23T03:53:52.002Z,43.80
2018-02-23T03:54:51.965Z,41.10
2018-02-23T03:55:51.928Z,39.30
2018-02-23T03:56:52.249Z,36.90
2018-02-23T03:57:51.874Z,36.30
2018-02-23T03:58:51.842Z,37.90
2018-02-23T03:59:51.803Z,36.70
2018-02-23T04:00:51.775Z,35.40
2018-02-23T04:01:51.733Z,33.20
2018-02-23T04:02:51.950Z,32.00
2018-02-23T04:03:51.675Z,32.80
2018-02-23T04:04:51.640Z,31.30
2018-02-23T04:05:51.594Z,28.20
2018-02-23T04:06:51.569Z,30.00
2018-02-23T04:07:51.544Z,25.70
2018-02-23T04:08:51.749Z,30.80
2018-02-23T04:09:51.477Z,30.10
2018-02-23T04:10:51.440Z,29.50
2018-02-23T04:11:51.412Z,26.80
2018-02-23T04:12:51.376Z,28.10
2018-02-23T04:13:51.336Z,29.30
2018-02-23T04:14:51.302Z,30.20
2018-02-23T04:15:51.270Z,29.20
2018-02-23T04:16:51.235Z,27.40
2018-02-23T04:17:51.196Z,28.80
2018-02-23T04:18:51.163Z,25.80
2018-02-23T04:19:51.138Z,28.90
2018-02-23T04:20:51.114Z,24.60
2018-02-23T04:21:51.079Z,25.80
2018-02-23T04:22:51.040Z,26.60
2018-02-23T04:23:51.003Z,26.30
2018-02-23T04:24:50.965Z,23.90
2018-02-23T04:25:50.946Z,24.40
2018-02-23T04:26:50.902Z,22.80
2018-02-23T04:27:50.870Z,25.00
2018-02-23T04:28:50.841Z,23.60
2018-02-23T04:29:50.804Z,25.40
2018-02-23T04:30:50.772Z,24.50
2018-02-23T04:31:50.737Z,21.40
2018-02-23T04:32:50.703Z,21.90
2018-02-23T04:33:50.668Z,22.60
2018-02-23T04:34:50.632Z,22.10
2018-02-23T04:35:50.609Z,21.80
2018-02-23T04:36:50.582Z,22.70
2018-02-23T04:37:50.888Z,23.30
2018-02-23T04:38:50.510Z,19.00
2018-02-23T04:39:50.468Z,22.70
2018-02-23T04:40:50.434Z,21.60
2018-02-23T04:41:50.406Z,19.30
2018-02-23T04:42:50.370Z,20.10
2018-02-23T04:43:50.591Z,19.40
2018-02-23T04:44:50.312Z,18.60
2018-02-23T04:45:50.283Z,18.80
2018-02-23T04:46:50.246Z,17.50
2018-02-23T04:47:50.207Z,18.60
2018-02-23T04:48:50.182Z,19.50
2018-02-23T04:49:50.137Z,20.00
2018-02-23T04:50:50.116Z,21.60
2018-02-23T04:51:50.074Z,17.50
2018-02-23T04:52:50.049Z,16.10
2018-02-23T04:53:50.020Z,16.00
2018-02-23T04:54:49.967Z,16.20
2018-02-23T04:55:49.940Z,18.70
2018-02-23T04:56:49.909Z,16.70
2018-02-23T04:57:49.878Z,16.50
2018-02-23T04:58:49.846Z,18.80
2018-02-23T04:59:49.804Z,16.30
2018-02-23T05:00:49.773Z,15.70
2018-02-23T05:01:49.747Z,19.20
2018-02-23T05:02:49.708Z,19.80
2018-02-23T05:03:49.668Z,18.40
2018-02-23T05:04:49.635Z,17.50
2018-02-23T05:05:49.598Z,16.40
2018-02-23T05:06:49.830Z,17.80
2018-02-23T05:07:49.537Z,15.00
2018-02-23T05:08:49.504Z,16.40
2018-02-23T05:09:49.472Z,14.90
2018-02-23T05:10:49.452Z,16.00
2018-02-23T05:11:49.397Z,16.90
2018-02-23T05:12:49.635Z,15.10
2018-02-23T05:13:49.341Z,18.00
2018-02-23T05:14:49.305Z,13.30
2018-02-23T05:15:49.262Z,15.80
2018-02-23T05:16:49.234Z,14.90
2018-02-23T05:17:49.204Z,14.70
2018-02-23T05:18:49.167Z,16.60
2018-02-23T05:19:49.132Z,17.30
2018-02-23T05:20:49.106Z,15.40
2018-02-23T05:21:49.064Z,13.60
2018-02-23T05:22:49.023Z,14.10
2018-02-23T05:23:48.998Z,15.50
2018-02-23T05:24:48.963Z,16.50
2018-02-23T05:25:48.923Z,15.20
2018-02-23T05:26:48.886Z,17.80
2018-02-23T05:27:48.849Z,15.30
2018-02-23T05:28:48.824Z,12.80
2018-02-23T05:29:48.832Z,13.50
2018-02-23T05:30:49.007Z,15.00
2018-02-23T05:31:48.721Z,16.30
2018-02-23T05:32:48.687Z,15.60
2018-02-23T05:33:48.657Z,14.90
2018-02-23T05:34:48.613Z,16.70
2018-02-23T05:35:48.577Z,18.60
2018-02-23T05:36:48.546Z,11.30
2018-02-23T05:37:48.506Z,19.80
2018-02-23T05:38:48.494Z,12.90
2018-02-23T05:39:48.438Z,12.70
2018-02-23T05:40:48.613Z,11.60
2018-02-23T05:41:48.378Z,13.30
2018-02-23T05:42:48.344Z,13.40
2018-02-23T05:43:48.302Z,13.00
2018-02-23T05:44:48.276Z,13.40
2018-02-23T05:45:48.227Z,13.90
2018-02-23T05:46:48.200Z,15.40
2018-02-23T05:47:48.463Z,16.30
2018-02-23T05:48:48.132Z,13.10
2018-02-23T05:49:48.100Z,13.90
2018-02-23T05:50:48.060Z,13.00
2018-02-23T05:51:48.024Z,14.50
2018-02-23T05:52:48.192Z,17.10
2018-02-23T05:53:47.961Z,17.50
2018-02-23T05:54:47.925Z,14.30
2018-02-23T05:55:47.878Z,13.70
2018-02-23T05:56:47.846Z,17.30
2018-02-23T05:57:47.819Z,15.50
2018-02-23T05:58:47.789Z,14.20
2018-02-23T05:59:47.996Z,17.90
2018-02-23T06:00:47.714Z,18.70
2018-02-23T06:01:47.676Z,19.00
2018-02-23T06:02:47.643Z,17.80
2018-02-23T06:03:47.605Z,16.70
2018-02-23T06:04:47.577Z,18.90
2018-02-23T06:05:47.884Z,14.40
2018-02-23T06:06:47.495Z,16.40
2018-02-23T06:07:47.469Z,13.50
2018-02-23T06:08:47.438Z,17.20
2018-02-23T06:09:47.396Z,14.30
2018-02-23T06:10:47.358Z,14.00
2018-02-23T06:11:47.324Z,16.70
2018-02-23T06:12:47.295Z,14.70
2018-02-23T06:13:47.257Z,17.30
2018-02-23T06:14:47.223Z,16.70
2018-02-23T06:15:47.190Z,15.60
2018-02-23T06:16:47.154Z,14.30
2018-02-23T06:17:47.116Z,16.20
2018-02-23T06:18:47.075Z,15.60
2018-02-23T06:19:47.046Z,17.40
2018-02-23T06:20:47.015Z,13.30
2018-02-23T06:21:46.976Z,14.50
2018-02-23T06:22:46.941Z,14.00
2018-02-23T06:23:46.907Z,13.90
2018-02-23T06:24:46.867Z,15.10
2018-02-23T06:25:46.847Z,15.70
2018-02-23T06:26:46.804Z,15.90
2018-02-23T06:27:46.759Z,16.60
2018-02-23T06:28:46.732Z,17.40
2018-02-23T06:29:46.693Z,16.20
2018-02-23T06:30:46.664Z,17.80
2018-02-23T06:31:46.628Z,20.40
2018-02-23T06:32:46.590Z,16.10
2018-02-23T06:33:46.549Z,16.50
2018-02-23T06:34:46.773Z,15.30
2018-02-23T06:35:46.484Z,15.80
2018-02-23T06:36:46.461Z,14.40
2018-02-23T06:37:46.408Z,16.80
2018-02-23T06:38:46.375Z,14.00
2018-02-23T06:39:46.340Z,14.20
2018-02-23T06:40:46.319Z,14.60
2018-02-23T06:41:46.288Z,14.70
2018-02-23T06:42:46.245Z,13.50
2018-02-23T06:43:46.209Z,14.60
2018-02-23T06:44:46.172Z,15.90
2018-02-23T06:45:46.133Z,15.40
2018-02-23T06:46:46.106Z,15.60
2018-02-23T06:47:46.081Z,15.20
2018-02-23T06:48:46.048Z,14.00
2018-02-23T06:49:46.006Z,14.50
2018-02-23T06:50:45.965Z,13.50
2018-02-23T06:51:45.940Z,12.50
2018-02-23T06:52:45.899Z,14.30
2018-02-23T06:53:45.861Z,14.40
2018-02-23T06:54:45.824Z,12.90
2018-02-23T06:55:45.790Z,12.70
2018-02-23T06:56:45.763Z,12.90
2018-02-23T06:57:45.989Z,15.80
2018-02-23T06:58:45.705Z,12.70
2018-02-23T06:59:45.856Z,13.00
2018-02-23T07:00:45.623Z,14.60
2018-02-23T07:01:45.590Z,11.60
2018-02-23T07:02:45.556Z,15.70
2018-02-23T07:03:45.529Z,13.30
2018-02-23T07:04:45.493Z,17.10
2018-02-23T07:05:45.462Z,15.20
2018-02-23T07:06:45.425Z,14.40
2018-02-23T07:07:45.395Z,15.00
2018-02-23T07:08:45.363Z,14.20
2018-02-23T07:09:45.577Z,13.80
2018-02-23T07:10:45.295Z,13.60
2018-02-23T07:11:45.261Z,15.00
2018-02-23T07:12:45.230Z,11.60
2018-02-23T07:13:45.200Z,14.20
2018-02-23T07:14:45.160Z,15.60
2018-02-23T07:15:45.129Z,14.10
2018-02-23T07:16:45.101Z,13.90
2018-02-23T07:17:45.070Z,11.60
2018-02-23T07:18:45.032Z,11.80
2018-02-23T07:19:45.014Z,15.60
2018-02-23T07:20:44.967Z,15.80
2018-02-23T07:21:44.937Z,14.60
2018-02-23T07:22:44.905Z,13.40
2018-02-23T07:23:44.875Z,11.10
2018-02-23T07:24:44.842Z,13.60
2018-02-23T07:25:44.818Z,12.60
2018-02-23T07:26:44.776Z,11.50
2018-02-23T07:27:44.740Z,11.40
2018-02-23T07:28:44.708Z,12.10
2018-02-23T07:29:44.684Z,13.40
2018-02-23T07:30:44.646Z,9.90
2018-02-23T07:31:44.620Z,10.40
2018-02-23T07:32:44.839Z,13.00
2018-02-23T07:33:44.554Z,15.80
2018-02-23T07:34:44.522Z,10.60
2018-02-23T07:35:44.498Z,10.30
2018-02-23T07:36:44.462Z,12.00
2018-02-23T07:37:44.429Z,14.60
2018-02-23T07:38:44.406Z,15.00
2018-02-23T07:39:44.369Z,10.80
2018-02-23T07:40:44.339Z,13.70
2018-02-23T07:41:44.312Z,13.60
2018-02-23T07:42:44.282Z,11.50
2018-02-23T07:43:44.246Z,14.20
2018-02-23T07:44:44.246Z,16.40
2018-02-23T07:45:44.189Z,11.80
2018-02-23T07:46:44.154Z,13.00
2018-02-23T07:47:44.125Z,12.30
2018-02-23T07:48:44.088Z,11.20
2018-02-23T07:49:44.062Z,12.90
2018-02-23T07:50:44.030Z,11.00
2018-02-23T07:51:44.011Z,10.90
2018-02-23T07:52:43.979Z,12.60
2018-02-23T07:53:43.949Z,11.00
2018-02-23T07:54:43.918Z,15.70
2018-02-23T07:55:43.878Z,11.60
2018-02-23T07:56:43.853Z,13.70
2018-02-23T07:57:43.824Z,14.30
2018-02-23T07:58:43.796Z,14.00
2018-02-23T07:59:43.760Z,12.00
2018-02-23T08:00:43.731Z,13.60
2018-02-23T08:01:43.696Z,13.50
2018-02-23T08:02:43.665Z,13.80
2018-02-23T08:03:43.646Z,13.50
2018-02-23T08:04:43.614Z,13.30
2018-02-23T08:05:43.589Z,14.50
2018-02-23T08:06:43.554Z,14.00
2018-02-23T08:07:43.522Z,10.70
2018-02-23T08:08:43.492Z,9.90
2018-02-23T08:09:43.468Z,13.10
2018-02-23T08:10:43.433Z,15.10
2018-02-23T08:11:43.403Z,10.90
2018-02-23T08:12:43.382Z,15.60
2018-02-23T08:13:43.346Z,13.40
2018-02-23T08:14:43.339Z,14.60
2018-02-23T08:15:43.291Z,10.90
2018-02-23T08:16:43.277Z,11.20
2018-02-23T08:17:43.239Z,13.80
2018-02-23T08:18:43.200Z,16.30
2018-02-23T08:19:43.174Z,15.60
2018-02-23T08:20:43.144Z,12.30
2018-02-23T08:21:43.117Z,13.90
2018-02-23T08:22:43.094Z,16.60
2018-02-23T08:23:43.058Z,13.30
2018-02-23T08:24:43.029Z,12.70
2018-02-23T08:25:43.001Z,14.90
2018-02-23T08:26:42.980Z,13.20
2018-02-23T08:27:42.944Z,13.20
2018-02-23T08:28:42.914Z,15.40
2018-02-23T08:29:42.885Z,13.40
2018-02-23T08:30:43.108Z,13.00
2018-02-23T08:31:42.828Z,16.20
2018-02-23T08:32:42.799Z,17.40
2018-02-23T08:33:42.783Z,13.50
2018-02-23T08:34:42.748Z,18.40
2018-02-23T08:35:42.719Z,19.80
2018-02-23T08:36:42.937Z,14.90
2018-02-23T08:37:42.665Z,15.20
2018-02-23T08:38:42.632Z,17.70
2018-02-23T08:39:42.609Z,14.10
2018-02-23T08:40:42.574Z,16.30
2018-02-23T08:41:42.547Z,14.40
2018-02-23T08:42:42.516Z,15.20
2018-02-23T08:43:42.484Z,16.00
2018-02-23T08:44:42.463Z,14.40
2018-02-23T08:45:42.439Z,15.60
2018-02-23T08:46:42.410Z,16.10
2018-02-23T08:47:42.379Z,17.40
2018-02-23T08:48:42.349Z,14.50
2018-02-23T08:49:42.312Z,24.60
2018-02-23T08:50:42.290Z,21.00
2018-02-23T08:51:42.264Z,13.40
2018-02-23T08:52:42.244Z,17.70
2018-02-23T08:53:42.200Z,15.30
2018-02-23T08:54:42.176Z,18.20
2018-02-23T08:55:42.187Z,17.00
2018-02-23T08:56:42.118Z,15.70
2018-02-23T08:57:42.090Z,16.00
2018-02-23T08:58:42.072Z,16.80
2018-02-23T08:59:42.038Z,16.60
2018-02-23T09:00:42.319Z,15.10
2018-02-23T09:01:41.977Z,18.80
2018-02-23T09:02:41.960Z,16.70
2018-02-23T09:03:41.927Z,17.10
2018-02-23T09:04:41.902Z,18.50
2018-02-23T09:05:41.866Z,17.20
2018-02-23T09:06:41.839Z,19.90
2018-02-23T09:07:41.811Z,17.40
2018-02-23T09:08:41.780Z,17.90
2018-02-23T09:09:41.750Z,23.00
2018-02-23T09:10:41.721Z,21.30
2018-02-23T09:11:41.700Z,22.30
2018-02-23T09:12:41.677Z,23.90
2018-02-23T09:13:41.650Z,19.40
2018-02-23T09:14:41.619Z,22.10
2018-02-23T09:15:41.596Z,19.90
2018-02-23T09:16:41.563Z,21.30
2018-02-23T09:17:41.540Z,22.00
2018-02-23T09:18:41.548Z,22.80
2018-02-23T09:19:41.477Z,24.00
2018-02-23T09:20:41.477Z,21.80
2018-02-23T09:21:41.418Z,24.50
2018-02-23T09:22:41.405Z,20.90
2018-02-23T09:23:41.383Z,23.30
2018-02-23T09:24:41.410Z,20.90
2018-02-23T09:25:41.316Z,23.80
2018-02-23T09:26:41.280Z,19.40
2018-02-23T09:27:41.259Z,21.30
2018-02-23T09:28:41.272Z,23.20
2018-02-23T09:29:41.458Z,26.20
2018-02-23T09:30:41.175Z,22.70
2018-02-23T09:31:41.143Z,23.80
2018-02-23T09:32:41.144Z,22.80
2018-02-23T09:33:41.104Z,20.60
2018-02-23T09:34:41.064Z,22.20
2018-02-23T09:35:41.041Z,20.90
2018-02-23T09:36:41.018Z,22.20
2018-02-23T09:37:40.989Z,24.90
2018-02-23T09:38:40.955Z,26.40
2018-02-23T09:39:40.961Z,21.20
2018-02-23T09:40:40.939Z,21.60
2018-02-23T09:41:40.875Z,28.30
2018-02-23T09:42:40.840Z,25.90
2018-02-23T09:43:40.818Z,31.10
2018-02-23T09:44:40.834Z,23.50
2018-02-23T09:45:40.772Z,23.50
2018-02-23T09:46:40.744Z,20.10
2018-02-23T09:47:40.719Z,25.60
2018-02-23T09:48:40.690Z,27.40
2018-02-23T09:49:40.655Z,26.10
2018-02-23T09:50:40.632Z,22.60
2018-02-23T09:51:40.609Z,31.70
2018-02-23T09:52:40.574Z,23.30
2018-02-23T09:53:40.556Z,27.40
2018-02-23T09:54:40.531Z,28.10
2018-02-23T09:55:40.497Z,23.20
2018-02-23T09:56:40.499Z,24.60
2018-02-23T09:57:40.654Z,21.70
2018-02-23T09:58:40.421Z,30.20
2018-02-23T09:59:40.389Z,23.70
2018-02-23T10:00:40.370Z,21.30
2018-02-23T10:01:40.336Z,23.20
2018-02-23T10:02:40.308Z,23.20
2018-02-23T10:03:40.285Z,21.60
2018-02-23T10:04:40.563Z,27.30
2018-02-23T10:05:40.241Z,29.20
2018-02-23T10:06:40.221Z,24.70
2018-02-23T10:07:40.186Z,23.40
2018-02-23T10:08:40.151Z,26.30
2018-02-23T10:09:40.135Z,21.90
2018-02-23T10:10:40.107Z,23.50
2018-02-23T10:11:40.071Z,23.70
2018-02-23T10:12:40.044Z,24.40
2018-02-23T10:13:40.020Z,26.10
2018-02-23T10:14:39.993Z,22.10
2018-02-23T10:15:39.967Z,25.80
2018-02-23T10:16:39.946Z,23.20
2018-02-23T10:17:39.932Z,23.40
2018-02-23T10:18:39.896Z,22.90
2018-02-23T10:19:39.896Z,23.20
2018-02-23T10:20:39.835Z,24.60
2018-02-23T10:21:39.811Z,22.30
2018-02-23T10:22:39.786Z,21.70
2018-02-23T10:23:39.746Z,26.00
2018-02-23T10:24:39.729Z,21.50
2018-02-23T10:25:39.704Z,23.20
2018-02-23T10:26:39.679Z,24.30
2018-02-23T10:27:39.641Z,24.60
2018-02-23T10:28:39.620Z,25.80
2018-02-23T10:29:39.593Z,22.90
2018-02-23T10:30:39.571Z,27.70
2018-02-23T10:31:39.535Z,26.80
2018-02-23T10:32:39.515Z,28.20
2018-02-23T10:33:39.686Z,24.90
2018-02-23T10:34:39.652Z,28.40
2018-02-23T10:35:39.637Z,23.20
2018-02-23T10:36:39.404Z,25.90
2018-02-23T10:37:39.377Z,23.40
2018-02-23T10:38:39.350Z,34.00
2018-02-23T10:39:39.325Z,28.50
2018-02-23T10:40:39.549Z,25.80
2018-02-23T10:41:39.276Z,23.80
2018-02-23T10:42:39.251Z,26.60
2018-02-23T10:43:39.221Z,25.10
2018-02-23T10:44:39.193Z,22.90
2018-02-23T10:45:39.471Z,20.30
2018-02-23T10:46:39.139Z,26.10
2018-02-23T10:47:39.122Z,32.80
2018-02-23T10:48:39.100Z,26.60
2018-02-23T10:49:39.064Z,27.20
2018-02-23T10:50:39.034Z,29.60
2018-02-23T10:51:39.012Z,23.70
2018-02-23T10:52:38.983Z,21.70
2018-02-23T10:53:38.957Z,25.30
2018-02-23T10:54:38.933Z,21.50
2018-02-23T10:55:38.905Z,22.80
2018-02-23T10:56:38.878Z,27.10
2018-02-23T10:57:38.857Z,21.90
2018-02-23T10:58:38.833Z,25.70
2018-02-23T10:59:38.807Z,24.80
2018-02-23T11:00:38.775Z,23.50
2018-02-23T11:01:38.752Z,26.40
2018-02-23T11:02:38.732Z,26.60
2018-02-23T11:03:38.705Z,28.20
2018-02-23T11:04:38.674Z,24.60
2018-02-23T11:05:38.650Z,29.00
2018-02-23T11:06:38.618Z,26.20
2018-02-23T11:07:38.595Z,26.10
2018-02-23T11:08:38.569Z,31.10
2018-02-23T11:09:38.540Z,31.20
2018-02-23T11:10:38.513Z,29.50
2018-02-23T11:11:38.480Z,26.80
2018-02-23T11:12:38.468Z,30.30
2018-02-23T11:13:38.432Z,27.80
2018-02-23T11:14:38.408Z,27.70
2018-02-23T11:15:38.377Z,25.60
2018-02-23T11:16:38.349Z,25.20
2018-02-23T11:17:38.335Z,28.60
2018-02-23T11:18:38.317Z,29.20
2018-02-23T11:19:38.286Z,25.40
2018-02-23T11:20:38.255Z,25.30
2018-02-23T11:21:38.223Z,26.90
2018-02-23T11:22:38.198Z,27.40
2018-02-23T11:23:38.168Z,29.40
2018-02-23T11:24:38.147Z,26.30
2018-02-23T11:25:38.117Z,30.40
2018-02-23T11:26:38.084Z,27.20
2018-02-23T11:27:38.079Z,26.30
2018-02-23T11:28:38.058Z,28.30
2018-02-23T11:29:38.017Z,28.90
2018-02-23T11:30:37.988Z,28.80
2018-02-23T11:31:37.957Z,25.90
2018-02-23T11:32:37.935Z,23.80
2018-02-23T11:33:37.913Z,22.20
2018-02-23T11:34:37.899Z,26.00
2018-02-23T11:35:37.866Z,27.50
2018-02-23T11:36:37.837Z,30.20
2018-02-23T11:37:37.805Z,28.40
2018-02-23T11:38:37.792Z,26.90
2018-02-23T11:39:37.766Z,28.20
2018-02-23T11:40:37.741Z,27.80
2018-02-23T11:41:37.706Z,29.30
2018-02-23T11:42:37.686Z,29.50
2018-02-23T11:43:37.652Z,30.70
2018-02-23T11:44:37.642Z,24.40
2018-02-23T11:45:37.606Z,28.10
2018-02-23T11:46:37.583Z,27.60
2018-02-23T11:47:37.556Z,26.00
2018-02-23T11:48:37.534Z,33.70
2018-02-23T11:49:37.583Z,27.80
2018-02-23T11:50:37.516Z,25.00
2018-02-23T11:51:37.483Z,32.10
2018-02-23T11:52:37.425Z,28.40
2018-02-23T11:53:37.402Z,26.50
2018-02-23T11:54:37.371Z,39.10
2018-02-23T11:55:37.371Z,24.70
2018-02-23T11:56:37.329Z,25.20
2018-02-23T11:57:37.307Z,25.40
2018-02-23T11:58:37.297Z,25.50
2018-02-23T11:59:37.244Z,25.00
2018-02-23T12:00:37.219Z,27.40
2018-02-23T12:01:37.213Z,23.60
2018-02-23T12:02:37.173Z,24.20
2018-02-23T12:03:37.165Z,27.30
2018-02-23T12:04:37.122Z,32.00
2018-02-23T12:05:37.103Z,28.80
2018-02-23T12:06:37.070Z,26.40
2018-02-23T12:07:37.059Z,25.90
2018-02-23T12:08:37.052Z,23.80
2018-02-23T12:09:37.002Z,24.50
2018-02-23T12:10:36.965Z,25.00
2018-02-23T12:11:36.945Z,28.00
2018-02-23T12:12:36.915Z,26.70
2018-02-23T12:13:36.898Z,25.10
2018-02-23T12:14:36.866Z,27.70
2018-02-23T12:15:36.843Z,27.50
2018-02-23T12:16:36.821Z,25.40
2018-02-23T12:17:36.801Z,25.30
2018-02-23T12:18:36.791Z,25.70
2018-02-23T12:19:36.745Z,26.20
2018-02-23T12:20:36.718Z,23.70
2018-02-23T12:21:36.687Z,23.80
2018-02-23T12:22:36.669Z,30.00
2018-02-23T12:23:36.640Z,31.40
2018-02-23T12:24:36.615Z,31.80
2018-02-23T12:25:36.588Z,28.30
2018-02-23T12:26:36.569Z,30.20
2018-02-23T12:27:36.544Z,29.40
2018-02-23T12:28:36.516Z,28.90
2018-02-23T12:29:36.493Z,31.30
2018-02-23T12:30:36.474Z,25.40
2018-02-23T12:31:36.443Z,26.30
2018-02-23T12:32:36.421Z,29.30
2018-02-23T12:33:36.398Z,30.00
2018-02-23T12:34:36.375Z,28.20
2018-02-23T12:35:36.333Z,27.10
2018-02-23T12:36:36.313Z,27.70
2018-02-23T12:37:36.288Z,25.90
2018-02-23T12:38:36.263Z,28.90
2018-02-23T12:39:36.237Z,31.30
2018-02-23T12:40:36.218Z,28.40
2018-02-23T12:41:36.203Z,28.60
2018-02-23T12:42:36.167Z,26.70
2018-02-23T12:43:36.144Z,25.20
2018-02-23T12:44:36.175Z,30.20
2018-02-23T12:45:36.093Z,24.00
2018-02-23T12:46:36.057Z,25.60
2018-02-23T12:47:36.047Z,28.30
2018-02-23T12:48:36.014Z,26.80
2018-02-23T12:49:35.991Z,27.90
2018-02-23T12:50:35.973Z,25.60
2018-02-23T12:51:35.943Z,25.20
2018-02-23T12:52:35.914Z,26.50